Time;durP1;ratioP1;P1;durP2;ratioP2;P2;SDS_P1;SDS_P2;PMS_P1;PMS_P2;Temp;Humidity;BMP_temperature;BMP_pressure;BME280_temperature;BME280_humidity;BME280_pressure;Samples;Min_cycle;Max_cycle;Signal;HPM_P1;HPM_P2
2024/04/13 00:01:13;;;;;;;16.40;13.20;;;;;;;10.44;86.11;100640.80;217577;1256;140760;-69
2024/04/13 00:06:15;;;;;;;12.70;9.60;;;;;;;10.60;86.02;100634.74;218604;1256;140429;-70
2024/04/13 00:11:17;;;;;;;16.40;11.20;;;;;;;10.75;86.06;100632.64;219047;1256;140687;-69
2024/04/13 00:16:18;;;;;;;13.50;10.90;;;;;;;10.88;85.85;100634.50;217415;1259;141364;-69
2024/04/13 00:21:21;;;;;;;14.70;10.70;;;;;;;10.99;85.85;100626.67;217367;1259;140659;-69
2024/04/13 00:26:24;;;;;;;14.30;9.80;;;;;;;11.09;85.81;100630.36;218851;1256;141071;-69
2024/04/13 00:31:26;;;;;;;10.40;8.80;;;;;;;11.20;85.60;100626.48;218577;1256;140240;-69
2024/04/13 00:36:30;;;;;;;9.90;8.70;;;;;;;11.29;85.37;100627.23;217619;1259;141244;-69
2024/04/13 00:41:32;;;;;;;11.10;8.90;;;;;;;11.38;85.36;100616.71;217609;1260;140856;-70
2024/04/13 00:46:34;;;;;;;15.30;10.00;;;;;;;11.44;85.16;100615.05;217373;1259;140473;-71
2024/04/13 00:51:35;;;;;;;10.80;8.50;;;;;;;11.51;85.23;100613.13;217817;1255;140395;-70
2024/04/13 00:56:40;;;;;;;10.30;8.30;;;;;;;11.57;85.11;100610.11;217328;1257;140091;-71
2024/04/13 01:01:41;;;;;;;10.80;8.10;;;;;;;11.62;84.81;100608.40;217351;1259;140358;-70
2024/04/13 01:06:44;;;;;;;11.50;9.40;;;;;;;11.67;84.76;100605.15;217608;1257;140426;-70
2024/04/13 01:11:46;;;;;;;11.80;8.00;;;;;;;11.73;84.68;100605.05;217876;1256;140836;-70
2024/04/13 01:16:48;;;;;;;13.60;9.30;;;;;;;11.78;84.77;100602.73;217510;1259;141031;-69
2024/04/13 01:21:51;;;;;;;16.60;8.90;;;;;;;11.83;84.29;100600.06;217958;1259;141044;-69
2024/04/13 01:26:54;;;;;;;17.10;8.80;;;;;;;11.89;84.19;100596.88;217839;1257;140362;-70
2024/04/13 01:31:57;;;;;;;11.40;9.30;;;;;;;11.93;84.14;100598.57;217877;1255;140300;-70
2024/04/13 01:36:59;;;;;;;12.70;9.70;;;;;;;11.97;83.91;100603.06;217752;1257;140628;-69
2024/04/13 01:42:01;;;;;;;15.10;9.80;;;;;;;12.00;83.74;100600.52;217601;1257;140656;-70
2024/04/13 01:47:05;;;;;;;13.00;7.80;;;;;;;12.03;83.68;100599.63;217557;1258;140755;-70
2024/04/13 01:52:07;;;;;;;9.70;8.20;;;;;;;12.05;83.48;100597.70;217422;1257;140468;-70
2024/04/13 01:57:10;;;;;;;11.80;8.70;;;;;;;12.08;83.25;100600.35;218274;1257;140509;-69
2024/04/13 02:02:12;;;;;;;12.70;8.80;;;;;;;12.10;82.98;100601.69;218600;1256;140591;-73
2024/04/13 02:07:15;;;;;;;11.80;8.10;;;;;;;12.13;82.83;100599.85;217703;1257;141075;-70
2024/04/13 02:12:17;;;;;;;9.00;6.40;;;;;;;12.14;82.65;100597.00;217708;1259;141515;-70
2024/04/13 02:17:19;;;;;;;12.50;6.30;;;;;;;12.13;82.86;100600.09;217742;1257;140232;-69
2024/04/13 02:22:21;;;;;;;11.50;7.60;;;;;;;12.13;82.76;100600.88;218440;1256;141298;-70
2024/04/13 02:27:24;;;;;;;9.30;7.40;;;;;;;12.13;82.67;100596.52;218559;1256;141184;-68
2024/04/13 02:32:26;;;;;;;17.70;8.30;;;;;;;12.14;82.27;100592.14;217540;1256;140933;-69
2024/04/13 02:37:27;;;;;;;12.70;6.20;;;;;;;12.16;82.21;100591.23;217554;1257;140706;-70
2024/04/13 02:42:29;;;;;;;6.60;5.90;;;;;;;12.17;82.09;100586.81;217769;1259;140233;-69
2024/04/13 02:47:31;;;;;;;6.70;6.00;;;;;;;12.16;82.04;100588.09;217575;1259;141049;-70
2024/04/13 02:52:34;;;;;;;11.90;6.80;;;;;;;12.17;81.92;100592.70;218330;1259;140401;-69
2024/04/13 02:57:36;;;;;;;10.20;6.60;;;;;;;12.18;81.90;100594.23;217683;1257;141153;-69
2024/04/13 03:02:37;;;;;;;6.80;5.30;;;;;;;12.19;81.97;100592.46;217595;1257;141038;-68
2024/04/13 03:07:39;;;;;;;8.30;6.80;;;;;;;12.23;81.89;100596.51;217334;1259;140134;-69
2024/04/13 03:12:41;;;;;;;8.70;6.80;;;;;;;12.26;81.80;100595.35;217601;1257;141317;-69
2024/04/13 03:17:44;;;;;;;8.80;6.60;;;;;;;12.29;81.66;100595.48;217465;1256;140180;-70
2024/04/13 03:22:47;;;;;;;7.30;6.20;;;;;;;12.31;81.78;100594.48;217810;1256;141172;-67
2024/04/13 03:27:48;;;;;;;6.30;4.60;;;;;;;12.32;81.64;100589.00;217397;1259;141937;-71
2024/04/13 03:32:50;;;;;;;11.90;7.50;;;;;;;12.33;81.49;100588.54;217482;1259;141184;-69
2024/04/13 03:37:56;;;;;;;13.10;8.50;;;;;;;12.32;81.49;100590.34;217575;1257;140789;-68
2024/04/13 03:42:59;;;;;;;8.80;6.60;;;;;;;12.34;81.65;100591.95;218515;1257;140292;-69
2024/04/13 03:48:01;;;;;;;6.60;6.00;;;;;;;12.37;81.64;100589.52;217514;1257;140530;-69
2024/04/13 03:53:03;;;;;;;11.00;7.90;;;;;;;12.38;81.62;100593.64;217604;1259;140214;-70
2024/04/13 03:58:06;;;;;;;7.80;7.10;;;;;;;12.37;81.80;100591.52;219381;1255;140876;-71
2024/04/13 04:03:08;;;;;;;12.90;6.90;;;;;;;12.38;81.90;100595.46;217534;1258;139817;-68
2024/04/13 04:08:13;;;;;;;8.30;7.10;;;;;;;12.39;81.92;100601.45;217171;1260;141179;-73
2024/04/13 04:13:15;;;;;;;8.00;7.00;;;;;;;12.41;81.93;100603.11;218171;1257;140349;-69
2024/04/13 04:18:17;;;;;;;8.40;6.90;;;;;;;12.44;82.14;100601.91;218178;1259;140489;-67
2024/04/13 04:23:19;;;;;;;8.40;7.40;;;;;;;12.48;82.11;100595.51;217467;1259;140354;-69
2024/04/13 04:28:22;;;;;;;11.00;7.10;;;;;;;12.51;82.15;100602.38;217750;1257;141562;-68
2024/04/13 04:33:24;;;;;;;11.90;7.70;;;;;;;12.55;82.32;100600.70;217152;1260;142248;-69
2024/04/13 04:38:26;;;;;;;8.90;7.90;;;;;;;12.62;82.15;100607.40;217563;1257;140895;-70
2024/04/13 04:43:28;;;;;;;10.50;7.10;;;;;;;12.70;82.19;100608.21;217178;1257;141053;-69
2024/04/13 04:48:29;;;;;;;10.80;7.30;;;;;;;12.75;81.68;100610.07;217248;1258;140221;-68
2024/04/13 04:53:31;;;;;;;10.60;8.50;;;;;;;12.77;81.91;100611.19;217067;1257;140523;-68
2024/04/13 04:58:33;;;;;;;9.00;6.40;;;;;;;12.75;81.87;100616.16;217516;1258;140159;-70
2024/04/13 05:03:34;;;;;;;8.30;7.50;;;;;;;12.69;81.81;100622.37;217312;1258;140565;-68
2024/04/13 05:08:36;;;;;;;9.20;7.40;;;;;;;12.67;81.63;100623.66;217594;1259;140122;-69
2024/04/13 05:13:40;;;;;;;7.40;6.70;;;;;;;12.69;81.72;100624.26;217280;1259;141221;-69
2024/04/13 05:18:42;;;;;;;9.70;6.80;;;;;;;12.78;81.73;100620.11;217478;1256;140298;-69
2024/04/13 05:23:44;;;;;;;9.40;8.40;;;;;;;12.85;82.05;100619.09;217382;1257;140751;-69
2024/04/13 05:28:45;;;;;;;9.10;6.80;;;;;;;13.04;82.13;100620.18;217240;1260;140664;-69
2024/04/13 05:33:47;;;;;;;7.90;5.80;;;;;;;13.33;82.45;100610.22;217829;1257;140987;-70
2024/04/13 05:38:48;;;;;;;12.70;7.50;;;;;;;13.69;82.18;100608.21;217401;1259;141690;-69
2024/04/13 05:43:51;;;;;;;12.90;6.90;;;;;;;13.99;82.00;100611.48;217333;1256;140042;-70
2024/04/13 05:48:53;;;;;;;7.40;6.70;;;;;;;14.32;81.94;100610.30;218348;1259;140908;-70
2024/04/13 05:53:55;;;;;;;9.40;6.20;;;;;;;14.71;81.57;100602.45;219039;1257;139985;-68
2024/04/13 05:58:57;;;;;;;9.70;7.70;;;;;;;14.95;81.18;100598.69;217427;1259;141249;-70
2024/04/13 06:04:00;;;;;;;7.10;6.50;;;;;;;15.12;80.46;100599.39;217319;1259;140758;-69
2024/04/13 06:09:03;;;;;;;9.20;7.70;;;;;;;15.23;80.10;100596.04;217981;1258;141679;-69
2024/04/13 06:14:04;;;;;;;11.50;7.70;;;;;;;15.23;79.80;100591.37;217190;1259;141152;-69
2024/04/13 06:19:07;;;;;;;7.80;6.70;;;;;;;15.18;79.49;100599.70;217490;1257;141554;-69
2024/04/13 06:24:09;;;;;;;9.60;8.60;;;;;;;15.27;79.35;100597.16;217982;1260;140807;-70
2024/04/13 06:29:10;;;;;;;10.90;7.60;;;;;;;15.31;79.23;100595.16;217291;1257;141528;-69
2024/04/13 06:34:12;;;;;;;7.30;6.60;;;;;;;15.38;79.29;100599.33;217363;1259;140102;-69
2024/04/13 06:39:14;;;;;;;9.50;8.50;;;;;;;15.59;78.91;100599.60;217359;1260;140949;-68
2024/04/13 06:44:16;;;;;;;13.50;9.20;;;;;;;15.95;78.79;100598.34;217637;1259;141779;-70
2024/04/13 06:49:21;;;;;;;12.10;8.90;;;;;;;16.74;78.15;100601.30;217341;1257;142318;-72
2024/04/13 06:54:24;;;;;;;10.00;9.00;;;;;;;18.08;76.59;100603.12;217451;1261;140564;-70
2024/04/13 06:59:25;;;;;;;12.50;10.00;;;;;;;19.20;75.40;100599.95;217366;1258;141822;-71
2024/04/13 07:04:26;;;;;;;11.20;9.70;;;;;;;19.90;73.38;100599.45;217435;1257;140729;-70
2024/04/13 07:09:29;;;;;;;20.00;10.70;;;;;;;20.14;71.52;100598.72;217429;1260;141069;-70
2024/04/13 07:14:31;;;;;;;10.40;9.50;;;;;;;20.49;71.24;100599.05;217222;1259;140508;-70
2024/04/13 07:19:32;;;;;;;14.50;11.00;;;;;;;21.25;69.91;100603.89;217826;1257;219367;-70
2024/04/13 07:24:34;;;;;;;13.00;8.70;;;;;;;21.97;69.21;100597.49;219101;1259;140586;-70
2024/04/13 07:29:36;;;;;;;11.00;9.90;;;;;;;22.30;67.98;100598.36;217815;1260;139704;-69
2024/04/13 07:34:40;;;;;;;11.40;7.50;;;;;;;22.22;66.34;100601.83;217336;1259;140619;-71
2024/04/13 07:39:43;;;;;;;10.60;9.30;;;;;;;22.15;66.31;100596.00;217791;1259;140780;-69
2024/04/13 07:44:46;;;;;;;13.80;8.00;;;;;;;22.05;65.14;100598.11;217089;1257;139862;-69
2024/04/13 07:49:47;;;;;;;11.10;9.90;;;;;;;21.59;64.68;100597.79;218075;1260;140027;-70
2024/04/13 07:54:51;;;;;;;9.40;8.30;;;;;;;21.39;64.60;100591.86;217450;1261;139698;-71
2024/04/13 07:59:54;;;;;;;6.90;6.30;;;;;;;21.19;64.68;100601.45;217739;1259;139598;-70
2024/04/13 08:04:56;;;;;;;13.80;9.50;;;;;;;21.15;65.03;100589.86;218473;1257;139465;-69
2024/04/13 08:09:59;;;;;;;8.20;7.40;;;;;;;21.33;65.11;100586.99;217465;1261;139615;-71
2024/04/13 08:15:02;;;;;;;9.70;8.90;;;;;;;21.20;64.38;100581.65;218005;1261;139562;-71
2024/04/13 08:20:08;;;;;;;10.30;8.90;;;;;;;21.37;65.33;100572.95;217413;1257;140275;-68
2024/04/13 08:25:11;;;;;;;10.70;8.30;;;;;;;21.74;65.47;100567.95;217370;1258;139430;-70
2024/04/13 08:30:13;;;;;;;11.10;8.50;;;;;;;21.98;64.65;100576.11;217515;1259;139514;-70
2024/04/13 08:35:15;;;;;;;10.00;7.60;;;;;;;21.97;63.73;100570.14;217502;1257;139525;-70
2024/04/13 08:40:17;;;;;;;11.00;9.00;;;;;;;21.45;62.65;100571.45;217792;1260;140079;-69
2024/04/13 08:45:22;;;;;;;6.50;5.50;;;;;;;21.17;62.89;100565.51;217296;1259;140432;-69
2024/04/13 08:50:24;;;;;;;9.70;7.90;;;;;;;21.29;63.35;100557.40;217937;1260;140003;-70
2024/04/13 08:55:28;;;;;;;7.70;6.70;;;;;;;21.55;62.98;100557.52;217583;1259;140094;-70
2024/04/13 09:00:31;;;;;;;7.70;6.90;;;;;;;21.69;62.40;100565.13;218119;1255;140245;-70
2024/04/13 09:05:32;;;;;;;9.20;7.00;;;;;;;21.55;61.35;100562.23;217795;1255;140257;-70
2024/04/13 09:10:41;;;;;;;8.60;6.90;;;;;;;21.26;60.84;100569.95;217647;1261;140003;-70
2024/04/13 09:15:46;;;;;;;6.50;5.90;;;;;;;21.25;61.38;100564.70;217960;1261;139761;-69
2024/04/13 09:20:49;;;;;;;8.70;7.20;;;;;;;21.53;61.46;100562.86;218035;1259;139386;-70
2024/04/13 09:26:00;;;;;;;7.20;6.50;;;;;;;21.81;60.70;100565.92;217342;1260;140130;-71
2024/04/13 09:31:03;;;;;;;7.70;6.80;;;;;;;21.73;60.44;100555.80;217471;1257;139464;-70
2024/04/13 09:36:05;;;;;;;6.10;5.20;;;;;;;21.73;59.92;100554.01;217423;1257;139147;-70
2024/04/13 09:41:08;;;;;;;8.10;5.50;;;;;;;21.50;59.11;100556.44;217396;1257;140248;-70
2024/04/13 09:46:10;;;;;;;7.70;6.20;;;;;;;21.19;59.07;100558.73;218619;1259;140348;-70
2024/04/13 09:51:12;;;;;;;4.90;4.50;;;;;;;21.08;59.10;100547.42;218197;1259;139548;-71
2024/04/13 09:56:13;;;;;;;6.20;5.20;;;;;;;21.46;58.88;100543.23;217272;1258;152282;-70
2024/04/13 10:01:15;;;;;;;7.70;6.50;;;;;;;21.49;58.27;100540.11;217439;1257;139364;-70
2024/04/13 10:06:18;;;;;;;5.40;4.80;;;;;;;21.30;57.22;100539.40;217382;1257;139846;-71
2024/04/13 10:11:21;;;;;;;6.50;6.00;;;;;;;21.64;57.49;100548.73;217501;1256;140449;-71
2024/04/13 10:16:26;;;;;;;6.40;5.70;;;;;;;21.79;57.29;100540.70;218113;1257;140161;-71
2024/04/13 10:21:34;;;;;;;7.60;6.60;;;;;;;22.07;56.95;100529.30;217445;1257;140704;-70
2024/04/13 10:26:36;;;;;;;8.30;5.40;;;;;;;22.09;56.18;100539.42;217595;1259;139505;-71
2024/04/13 10:31:39;;;;;;;4.80;4.30;;;;;;;21.77;55.14;100539.54;218173;1259;140415;-71
2024/04/13 10:36:41;;;;;;;10.90;6.70;;;;;;;21.48;55.03;100548.09;217354;1257;139987;-72
2024/04/13 10:41:46;;;;;;;7.00;6.20;;;;;;;21.51;55.23;100535.48;217499;1259;139669;-71
2024/04/13 10:46:49;;;;;;;8.10;6.00;;;;;;;21.77;54.70;100538.50;217729;1257;142266;-71
2024/04/13 10:51:52;;;;;;;9.90;6.10;;;;;;;21.68;54.11;100539.70;217610;1259;140207;-71
2024/04/13 10:56:56;;;;;;;5.30;4.90;;;;;;;21.58;54.04;100531.23;217673;1257;140223;-71
2024/04/13 11:01:59;;;;;;;10.70;4.80;;;;;;;21.52;53.97;100526.73;217422;1257;140072;-70
2024/04/13 11:07:01;;;;;;;6.30;4.80;;;;;;;21.93;54.13;100519.26;217577;1256;139267;-71
2024/04/13 11:12:07;;;;;;;6.60;4.60;;;;;;;22.45;53.27;100507.14;218820;1259;139979;-72
2024/04/13 11:17:09;;;;;;;;;;;;;;;22.88;52.69;100496.30;218689;1259;140384;-72
2024/04/13 11:22:15;;;;;;;7.90;3.80;;;;;;;23.01;51.86;100493.98;218043;1258;126650;-72
2024/04/13 11:27:18;;;;;;;4.40;3.60;;;;;;;23.01;51.06;100489.95;220151;1256;141842;-72
2024/04/13 11:32:20;;;;;;;5.80;3.50;;;;;;;23.02;50.66;100491.61;218354;1260;140444;-71
2024/04/13 11:37:22;;;;;;;6.00;4.40;;;;;;;23.09;50.31;100488.28;217894;1260;264600;-70
2024/04/13 11:42:24;;;;;;;4.30;2.40;;;;;;;23.05;49.14;100488.73;217679;1257;139989;-71
2024/04/13 11:47:26;;;;;;;2.80;2.60;;;;;;;22.96;48.38;100500.10;217522;1260;139783;-71
2024/04/13 11:52:29;;;;;;;11.20;3.40;;;;;;;22.81;48.08;100489.20;217951;1257;139913;-70
2024/04/13 11:57:30;;;;;;;3.90;2.90;;;;;;;22.80;48.00;100497.44;217866;1257;140038;-70
2024/04/13 12:02:33;;;;;;;6.50;2.70;;;;;;;22.83;47.83;100488.31;217246;1260;140359;-74
2024/04/13 12:07:34;;;;;;;3.50;3.10;;;;;;;22.91;47.66;100489.05;217906;1260;141147;-72
2024/04/13 12:12:37;;;;;;;5.70;2.40;;;;;;;22.84;46.93;100475.09;217675;1260;139819;-71
2024/04/13 12:17:38;;;;;;;13.90;2.80;;;;;;;22.75;46.81;100469.95;217340;1258;140324;-70
2024/04/13 12:22:40;;;;;;;6.40;2.70;;;;;;;22.69;47.15;100463.40;217552;1259;140515;-71
2024/04/13 12:27:42;;;;;;;6.40;3.00;;;;;;;22.66;47.19;100465.40;218019;1257;139809;-71
2024/04/13 12:32:44;;;;;;;8.40;3.10;;;;;;;22.61;46.64;100461.70;217422;1258;140646;-71
2024/04/13 12:37:47;;;;;;;4.00;2.60;;;;;;;22.56;46.73;100454.50;217492;1260;140968;-71
2024/04/13 12:42:48;;;;;;;7.10;1.80;;;;;;;22.59;46.47;100454.19;217702;1257;139622;-70
2024/04/13 12:47:51;;;;;;;4.00;2.00;;;;;;;22.50;46.19;100445.30;218642;1260;139807;-70
2024/04/13 12:52:52;;;;;;;10.50;2.90;;;;;;;22.50;46.13;100438.71;217329;1262;140087;-71
2024/04/13 12:57:54;;;;;;;3.30;1.70;;;;;;;22.47;46.02;100434.10;218862;1259;140096;-71
2024/04/13 13:02:55;;;;;;;4.90;2.30;;;;;;;22.36;46.00;100443.61;218940;1257;140181;-70
2024/04/13 13:07:57;;;;;;;3.10;1.80;;;;;;;22.21;45.55;100442.83;217319;1259;141030;-70
2024/04/13 13:13:01;;;;;;;1.70;1.40;;;;;;;22.23;45.99;100434.05;217461;1261;139553;-71
2024/04/13 13:18:03;;;;;;;16.10;12.20;;;;;;;22.25;46.25;100423.77;218608;1257;139684;-71
2024/04/13 13:23:06;;;;;;;3.20;2.00;;;;;;;22.25;46.33;100426.20;219874;1257;140427;-71
2024/04/13 13:28:08;;;;;;;5.30;2.00;;;;;;;22.27;46.14;100426.12;218585;1261;139415;-71
2024/04/13 13:33:12;;;;;;;5.20;1.80;;;;;;;22.28;46.59;100426.36;217853;1260;151660;-70
2024/04/13 13:38:13;;;;;;;5.50;1.70;;;;;;;22.24;46.56;100415.41;217347;1257;140762;-71
2024/04/13 13:43:15;;;;;;;2.60;2.40;;;;;;;22.17;46.68;100411.10;217971;1257;139539;-71
2024/04/13 13:48:17;;;;;;;7.30;2.00;;;;;;;22.05;46.92;100408.82;217577;1260;140693;-70
2024/04/13 13:53:19;;;;;;;2.40;1.60;;;;;;;22.01;47.00;100411.02;218315;1260;140175;-72
2024/04/13 13:58:21;;;;;;;6.70;3.50;;;;;;;21.88;47.36;100410.30;217454;1257;141956;-71
2024/04/13 14:03:25;;;;;;;2.80;1.70;;;;;;;21.82;47.49;100411.38;217787;1260;140108;-70
2024/04/13 14:08:27;;;;;;;3.80;1.60;;;;;;;21.69;47.35;100409.48;217629;1260;141464;-71
2024/04/13 14:13:29;;;;;;;2.60;2.40;;;;;;;21.60;47.35;100409.17;217459;1257;139958;-72
2024/04/13 14:18:32;;;;;;;1.50;1.30;;;;;;;21.52;47.56;100397.61;217726;1259;140278;-70
2024/04/13 14:23:34;;;;;;;9.20;2.70;;;;;;;21.54;47.61;100388.47;217489;1258;139525;-72
2024/04/13 14:28:35;;;;;;;3.00;2.20;;;;;;;21.50;47.52;100388.61;217552;1260;139485;-71
2024/04/13 14:33:38;;;;;;;7.00;2.50;;;;;;;21.41;47.50;100385.55;217783;1259;140703;-71
2024/04/13 14:38:40;;;;;;;5.50;2.10;;;;;;;21.34;47.78;100381.91;217855;1260;139679;-69
2024/04/13 14:43:43;;;;;;;7.30;2.30;;;;;;;21.34;48.13;100384.29;217219;1259;139390;-71
2024/04/13 14:48:45;;;;;;;5.00;2.90;;;;;;;21.38;48.28;100379.85;217939;1256;140935;-71
2024/04/13 14:53:47;;;;;;;4.00;2.10;;;;;;;21.44;48.07;100371.56;217402;1258;139189;-71
2024/04/13 14:58:50;;;;;;;2.00;1.80;;;;;;;21.44;47.68;100364.46;218622;1257;140844;-71
2024/04/13 15:03:52;;;;;;;3.80;2.50;;;;;;;21.32;47.61;100366.84;217605;1256;140333;-71
2024/04/13 15:08:54;;;;;;;2.80;1.70;;;;;;;21.37;47.86;100359.85;220306;1257;140168;-71
2024/04/13 15:13:55;;;;;;;7.00;3.00;;;;;;;21.46;47.75;100359.59;220267;1257;141014;-71
2024/04/13 15:18:57;;;;;;;3.20;1.80;;;;;;;21.43;47.35;100359.31;218468;1258;140263;-71
2024/04/13 15:23:59;;;;;;;2.40;2.20;;;;;;;21.33;47.28;100359.30;217611;1259;139408;-69
2024/04/13 15:29:02;;;;;;;5.40;3.40;;;;;;;21.19;47.27;100356.94;217574;1257;140163;-71
2024/04/13 15:34:33;;;;;;;2.90;2.30;;;;;;;21.14;47.56;100352.00;218283;1257;141077;-70
2024/04/13 15:39:35;;;;;;;2.70;1.90;;;;;;;21.08;48.09;100347.91;217448;1257;139438;-70
2024/04/13 15:44:37;;;;;;;3.10;2.30;;;;;;;20.90;47.79;100345.67;217538;1257;140656;-70
2024/04/13 15:49:39;;;;;;;2.80;2.40;;;;;;;20.69;48.09;100340.38;217363;1257;141363;-70
2024/04/13 15:54:40;;;;;;;2.90;1.90;;;;;;;20.55;48.29;100335.95;217593;1259;140727;-70
2024/04/13 15:59:46;;;;;;;3.10;2.10;;;;;;;20.33;48.12;100328.58;217603;1256;139041;-71
2024/04/13 16:04:50;;;;;;;3.50;2.50;;;;;;;20.16;48.19;100333.90;217367;1258;140054;-71
2024/04/13 16:09:52;;;;;;;5.00;2.50;;;;;;;20.04;48.60;100337.37;217598;1256;139791;-70
2024/04/13 16:14:55;;;;;;;10.60;6.10;;;;;;;19.91;48.90;100332.48;217455;1257;140262;-71
2024/04/13 16:19:56;;;;;;;3.60;3.10;;;;;;;19.86;49.24;100331.94;218523;1258;139891;-70
2024/04/13 16:24:58;;;;;;;5.00;2.40;;;;;;;19.78;49.42;100330.90;217344;1257;140260;-72
2024/04/13 16:29:59;;;;;;;9.60;7.40;;;;;;;19.67;49.50;100318.58;217532;1257;140146;-70
2024/04/13 16:35:01;;;;;;;4.50;3.10;;;;;;;19.55;49.79;100322.27;217520;1258;141760;-70
2024/04/13 16:40:03;;;;;;;3.00;2.40;;;;;;;19.43;49.92;100329.68;217485;1258;140756;-69
2024/04/13 16:45:05;;;;;;;5.80;3.10;;;;;;;19.29;50.17;100332.12;217347;1260;151686;-70
2024/04/13 16:50:07;;;;;;;12.10;4.30;;;;;;;19.13;50.49;100325.33;218136;1257;139704;-70
2024/04/13 16:55:09;;;;;;;8.50;2.60;;;;;;;19.04;50.78;100314.71;217484;1260;140183;-70
2024/04/13 17:00:11;;;;;;;4.90;2.60;;;;;;;18.92;50.85;100310.55;217577;1257;139337;-70
2024/04/13 17:05:14;;;;;;;7.80;2.40;;;;;;;18.85;51.32;100311.98;219506;1257;139884;-70
2024/04/13 17:10:16;;;;;;;3.90;2.60;;;;;;;18.75;51.62;100301.80;218121;1257;160642;-70
2024/04/13 17:15:18;;;;;;;3.00;2.70;;;;;;;18.63;51.92;100302.11;219557;1256;141034;-71
2024/04/13 17:20:19;;;;;;;5.20;3.40;;;;;;;18.50;52.27;100302.48;217594;1257;139611;-70
2024/04/13 17:25:21;;;;;;;6.80;2.40;;;;;;;18.38;52.46;100301.21;217297;1256;141033;-70
2024/04/13 17:30:22;;;;;;;3.90;2.30;;;;;;;18.24;52.72;100296.00;217621;1257;139443;-71
2024/04/13 17:35:24;;;;;;;6.50;2.00;;;;;;;18.11;52.95;100297.94;217873;1257;140164;-69
2024/04/13 17:40:25;;;;;;;1.80;1.70;;;;;;;17.96;53.20;100293.97;217490;1257;140375;-71
2024/04/13 17:45:27;;;;;;;2.10;2.00;;;;;;;17.79;53.45;100298.15;217339;1260;140371;-71
2024/04/13 17:50:29;;;;;;;3.40;1.90;;;;;;;17.60;54.02;100293.91;217154;1261;140240;-71
2024/04/13 17:55:30;;;;;;;2.50;2.30;;;;;;;17.33;54.58;100294.48;217374;1257;139844;-71
2024/04/13 18:00:33;;;;;;;3.20;2.90;;;;;;;17.08;55.27;100300.75;217903;1257;140280;-70
2024/04/13 18:05:34;;;;;;;2.60;2.10;;;;;;;16.87;55.93;100302.51;217531;1260;140842;-70
2024/04/13 18:10:39;;;;;;;2.50;2.30;;;;;;;16.70;56.27;100297.57;217162;1260;139270;-70
2024/04/13 18:15:40;;;;;;;4.80;2.50;;;;;;;16.51;56.67;100295.07;217969;1257;139253;-71
2024/04/13 18:20:42;;;;;;;4.90;3.00;;;;;;;16.34;57.46;100297.16;218137;1260;140507;-69
2024/04/13 18:25:44;;;;;;;5.60;3.60;;;;;;;16.19;58.05;100303.24;217541;1257;139280;-71
2024/04/13 18:30:46;;;;;;;3.50;2.80;;;;;;;16.01;58.48;100296.48;218056;1256;139786;-70
2024/04/13 18:35:49;;;;;;;2.70;2.40;;;;;;;15.87;58.95;100284.27;218604;1257;141045;-69
2024/04/13 18:40:55;;;;;;;5.50;2.60;;;;;;;15.61;59.40;100278.77;217958;1256;140283;-71
2024/04/13 18:45:57;;;;;;;4.80;2.90;;;;;;;15.45;59.76;100273.92;217273;1257;140389;-70
2024/04/13 18:50:58;;;;;;;7.60;2.60;;;;;;;15.34;60.20;100265.03;217222;1257;141166;-71
2024/04/13 18:56:00;;;;;;;3.40;2.60;;;;;;;15.21;60.56;100259.11;218089;1256;151153;-70
2024/04/13 19:01:08;;;;;;;2.90;2.70;;;;;;;15.12;60.99;100257.02;218867;1256;140129;-70
2024/04/13 19:06:11;;;;;;;8.60;3.10;;;;;;;15.07;61.19;100264.89;217465;1260;139886;-70
2024/04/13 19:11:13;;;;;;;3.80;2.90;;;;;;;15.01;61.30;100248.93;217177;1258;140791;-70
2024/04/13 19:16:14;;;;;;;3.10;2.90;;;;;;;14.88;61.59;100251.05;217501;1257;141005;-71
2024/04/13 19:21:16;;;;;;;3.50;3.20;;;;;;;14.79;61.91;100249.44;217496;1256;140083;-69
2024/04/13 19:26:20;;;;;;;4.90;4.10;;;;;;;14.70;62.33;100249.97;217651;1257;141011;-69
2024/04/13 19:31:47;;;;;;;5.10;4.00;;;;;;;14.60;62.76;100249.23;217355;1260;140165;-69
2024/04/13 19:36:49;;;;;;;8.80;6.00;;;;;;;14.47;63.13;100245.31;217593;1258;140448;-72
2024/04/13 19:41:51;;;;;;;12.10;6.50;;;;;;;14.38;63.32;100241.95;217225;1259;140255;-70
2024/04/13 19:46:53;;;;;;;6.40;5.90;;;;;;;14.23;63.52;100245.54;217353;1257;141668;-71
2024/04/13 19:51:55;;;;;;;8.10;6.10;;;;;;;14.10;64.14;100243.41;218241;1257;139798;-70
2024/04/13 19:56:57;;;;;;;10.20;7.40;;;;;;;14.06;64.49;100240.67;217548;1257;141915;-71
2024/04/13 20:02:14;;;;;;;7.10;6.10;;;;;;;14.03;64.55;100230.63;217577;1257;140272;-74
2024/04/13 20:07:16;;;;;;;;;;;;;;;13.98;64.77;100222.60;217166;1258;140366;-73
2024/04/13 20:12:19;;;;;;;6.20;5.60;;;;;;;13.93;65.16;100218.39;217638;1257;127527;-72
2024/04/13 20:22:42;;;;;;;9.90;6.40;;;;;;;13.83;65.40;100215.81;217630;1258;141408;-71
2024/04/13 20:27:44;;;;;;;10.30;8.30;;;;;;;13.72;65.76;100206.23;217574;1259;139947;-70
2024/04/13 20:32:46;;;;;;;10.10;6.80;;;;;;;13.63;65.87;100203.61;217692;1257;140432;-71
2024/04/13 20:37:48;;;;;;;14.10;7.70;;;;;;;13.58;66.28;100194.79;217298;1257;141232;-69
2024/04/13 20:42:49;;;;;;;10.90;6.90;;;;;;;13.50;66.50;100194.88;217387;1255;141534;-68
2024/04/13 20:47:51;;;;;;;13.90;7.60;;;;;;;13.46;66.59;100194.38;217876;1259;142090;-69
2024/04/13 20:52:53;;;;;;;14.10;6.70;;;;;;;13.44;67.13;100185.36;217352;1257;140729;-68
2024/04/13 20:57:55;;;;;;;12.50;6.50;;;;;;;13.45;67.28;100177.02;218396;1256;140811;-70
2024/04/13 21:02:57;;;;;;;9.70;5.80;;;;;;;13.46;67.24;100168.63;217718;1257;141620;-66
2024/04/13 21:08:00;;;;;;;9.60;7.10;;;;;;;13.50;67.56;100163.63;217561;1260;140403;-69
2024/04/13 21:13:01;;;;;;;8.50;5.80;;;;;;;13.49;67.42;100155.54;217150;1258;141415;-70
2024/04/13 21:18:03;;;;;;;12.50;7.20;;;;;;;13.49;67.71;100151.30;217619;1258;142388;-68
2024/04/13 21:23:04;;;;;;;8.60;6.80;;;;;;;13.46;67.91;100149.33;217337;1256;141084;-71
2024/04/13 21:28:06;;;;;;;7.90;6.00;;;;;;;13.45;67.79;100146.48;217496;1257;140816;-71
2024/04/13 21:33:08;;;;;;;7.40;5.70;;;;;;;13.45;68.14;100144.78;217555;1259;141518;-70
2024/04/13 21:38:10;;;;;;;8.70;5.70;;;;;;;13.47;68.05;100141.62;217273;1261;140272;-69
2024/04/13 21:43:12;;;;;;;6.50;5.50;;;;;;;13.47;68.04;100135.74;217264;1257;140365;-69
2024/04/13 21:48:13;;;;;;;8.20;4.90;;;;;;;13.46;68.13;100135.20;217654;1257;140295;-69
2024/04/13 21:53:15;;;;;;;6.80;5.50;;;;;;;13.44;68.19;100129.23;217460;1255;140504;-70
2024/04/13 21:58:16;;;;;;;9.60;6.00;;;;;;;13.40;68.10;100125.90;217483;1257;141411;-69
2024/04/13 22:03:17;;;;;;;8.60;5.40;;;;;;;13.34;68.31;100124.73;217157;1257;141221;-72
2024/04/13 22:08:19;;;;;;;9.00;4.70;;;;;;;13.30;68.48;100123.00;217373;1257;140510;-68
2024/04/13 22:13:21;;;;;;;4.90;4.50;;;;;;;13.30;68.81;100111.48;217654;1259;141770;-69
2024/04/13 22:18:22;;;;;;;5.30;4.30;;;;;;;13.31;68.91;100102.35;217860;1257;140932;-69
2024/04/13 22:23:24;;;;;;;6.70;6.00;;;;;;;13.27;69.17;100106.18;219215;1257;142103;-68
2024/04/13 22:28:25;;;;;;;7.70;6.10;;;;;;;13.23;69.22;100096.79;217491;1262;140477;-69
2024/04/13 22:33:27;;;;;;;6.80;4.40;;;;;;;13.17;69.42;100098.09;217281;1257;140262;-69
2024/04/13 22:38:29;;;;;;;7.60;5.00;;;;;;;13.12;69.27;100088.00;217125;1257;141477;-70
2024/04/13 22:43:30;;;;;;;6.60;4.50;;;;;;;13.10;69.58;100079.02;219592;1257;141664;-69
2024/04/13 22:48:32;;;;;;;6.20;5.20;;;;;;;13.04;69.62;100079.39;218142;1261;141103;-69
2024/04/13 22:53:34;;;;;;;6.50;5.20;;;;;;;12.99;69.80;100073.56;217413;1258;139994;-69